Time;durP1;ratioP1;P1;durP2;ratioP2;P2;SDS_P1;SDS_P2;PMS_P1;PMS_P2;Temp;Humidity;BMP_temperature;BMP_pressure;BME280_temperature;BME280_humidity;BME280_pressure;Samples;Min_cycle;Max_cycle;Signal;HPM_P1;HPM_P2
2022/08/28 00:00:30;;;;;;;;;15.60;15.00;;;;;27.68;49.50;98334.56;6235602;27;96995;-59
2022/08/28 00:03:34;;;;;;;;;17.60;16.00;;;;;27.67;49.68;98347.63;6241712;27;97376;-59
2022/08/28 00:06:40;;;;;;;;;15.40;14.40;;;;;27.65;49.73;98338.88;6246208;27;98223;-60
2022/08/28 00:09:44;;;;;;;;;16.00;15.00;;;;;27.64;49.71;98341.97;6234887;27;97330;-59
2022/08/28 00:12:49;;;;;;;;;13.00;13.00;;;;;27.62;50.08;98350.63;6242722;27;97276;-58
2022/08/28 00:15:56;;;;;;;;;16.00;16.00;;;;;27.61;50.29;98350.97;6233109;27;97458;-58
2022/08/28 00:19:01;;;;;;;;;17.00;17.00;;;;;27.60;50.39;98343.81;6248912;27;97516;-59
2022/08/28 00:22:04;;;;;;;;;17.75;16.00;;;;;27.60;50.39;98343.81;6232977;27;97409;-57
2022/08/28 00:25:10;;;;;;;;;16.80;15.80;;;;;27.57;50.36;98345.31;6233983;27;98456;-59
2022/08/28 00:28:14;;;;;;;;;14.40;14.00;;;;;27.54;50.33;98349.59;6254271;27;97448;-58
2022/08/28 00:31:27;;;;;;;;;15.40;15.40;;;;;27.54;50.55;98348.78;6250075;27;97364;-58
2022/08/28 00:34:32;;;;;;;;;16.00;16.00;;;;;27.54;50.02;98343.25;6232339;27;98618;-58
2022/08/28 00:37:35;;;;;;;;;17.00;16.25;;;;;27.51;50.70;98341.19;6233371;27;97478;-59
2022/08/28 00:40:41;;;;;;;;;14.50;14.50;;;;;27.27;50.95;98305.94;6238695;27;96449;-60
2022/08/28 00:43:48;;;;;;;;;17.00;16.40;;;;;27.47;51.45;98332.72;6251517;27;97413;-58
2022/08/28 00:46:55;;;;;;;;;16.00;15.00;;;;;27.43;51.43;98330.97;6243713;27;97321;-58
2022/08/28 00:49:58;;;;;;;;;14.00;14.00;;;;;27.39;51.36;98328.09;6234971;27;97169;-58
2022/08/28 00:53:00;;;;;;;;;13.00;13.00;;;;;27.38;51.90;98334.78;6231423;27;98110;-58
2022/08/28 00:56:08;;;;;;;;;13.00;12.00;;;;;27.36;51.90;98331.56;6232371;27;98061;-59
2022/08/28 00:59:19;;;;;;;;;13.00;13.00;;;;;27.35;51.47;98329.94;6248169;27;96974;-60
2022/08/28 01:02:24;;;;;;;;;16.00;16.00;;;;;27.33;51.79;98323.13;6231653;27;96971;-57
2022/08/28 01:05:28;;;;;;;;;16.00;15.00;;;;;27.31;51.94;98322.69;6231706;27;97223;-57
2022/08/28 01:08:33;;;;;;;;;15.00;14.00;;;;;27.15;51.78;98301.22;6242649;27;97489;-57
2022/08/28 01:11:36;;;;;;;;;14.60;14.60;;;;;27.23;52.00;98316.09;6244670;27;96780;-59
2022/08/28 01:14:44;;;;;;;;;12.00;11.00;;;;;27.23;52.00;98318.03;6247215;27;96964;-57
2022/08/28 01:17:52;;;;;;;;;15.00;15.00;;;;;27.21;52.41;98325.91;6236567;27;98069;-60
2022/08/28 01:21:01;;;;;;;;;12.20;12.20;;;;;27.20;52.15;98325.09;6257037;27;97340;-58
2022/08/28 01:24:09;;;;;;;;;15.50;15.25;;;;;27.20;51.80;98329.81;6233370;27;96586;-60
2022/08/28 01:27:12;;;;;;;;;13.80;13.80;;;;;27.17;52.25;98337.63;6250382;27;96956;-57
2022/08/28 01:30:20;;;;;;;;;14.00;14.00;;;;;27.17;52.16;98336.84;6237362;27;97015;-58
2022/08/28 01:33:23;;;;;;;;;16.00;15.00;;;;;27.17;52.47;98334.09;6237562;27;97140;-58
2022/08/28 01:36:32;;;;;;;;;15.60;15.00;;;;;27.16;51.97;98329.69;6229694;27;96910;-59
2022/08/28 01:39:37;;;;;;;;;17.00;17.00;;;;;27.16;51.99;98335.22;6236659;27;97552;-59
2022/08/28 01:42:42;;;;;;;;;18.25;17.25;;;;;27.14;52.37;98330.03;6242140;27;97520;-57
2022/08/28 01:45:51;;;;;;;;;13.20;13.20;;;;;27.14;52.48;98335.56;6233447;27;98868;-56
2022/08/28 01:48:54;;;;;;;;;17.00;16.00;;;;;27.15;52.79;98333.63;6230012;27;97916;-60
2022/08/28 01:51:59;;;;;;;;;17.00;17.00;;;;;27.16;52.99;98332.47;6239289;27;96902;-60
2022/08/28 01:55:08;;;;;;;;;15.40;15.40;;;;;27.14;52.43;98338.34;6229818;27;97117;-58
2022/08/28 01:58:12;;;;;;;;;16.00;15.80;;;;;27.13;51.98;98347.78;6228858;27;97559;-57
2022/08/28 02:01:19;;;;;;;;;22.40;22.00;;;;;27.11;52.32;98352.88;6242335;27;98422;-59
2022/08/28 02:04:23;;;;;;;;;17.00;16.00;;;;;27.12;52.26;98356.44;6230887;27;96604;-58
2022/08/28 02:07:34;;;;;;;;;19.00;17.40;;;;;27.12;52.37;98353.69;6236001;27;97064;-60
2022/08/28 02:10:42;;;;;;;;;18.00;17.40;;;;;27.12;52.68;98350.91;6242955;27;98482;-58
2022/08/28 02:13:45;;;;;;;;;15.00;15.00;;;;;27.12;52.46;98356.44;6230238;27;96721;-60
2022/08/28 02:16:52;;;;;;;;;19.00;18.40;;;;;27.12;52.49;98361.97;6230460;27;97661;-59
2022/08/28 02:19:56;;;;;;;;;14.60;14.60;;;;;27.10;52.94;98345.72;6238539;27;97131;-57
2022/08/28 02:23:00;;;;;;;;;15.60;15.00;;;;;27.08;52.82;98350.75;6235276;27;97573;-57
2022/08/28 02:26:05;;;;;;;;;18.00;17.00;;;;;27.08;52.71;98361.03;6230369;27;96989;-60
2022/08/28 02:29:09;;;;;;;;;16.00;16.00;;;;;27.06;52.53;98361.38;6237244;27;97445;-57
2022/08/28 02:32:12;;;;;;;;;19.60;19.00;;;;;27.06;52.73;98366.91;6232872;27;97252;-57
2022/08/28 02:35:17;;;;;;;;;17.00;16.00;;;;;27.07;52.34;98373.25;6238842;27;97348;-59
2022/08/28 02:38:21;;;;;;;;;16.60;15.60;;;;;27.04;52.24;98369.22;6241494;27;97015;-57
2022/08/28 02:41:26;;;;;;;;;18.00;18.00;;;;;27.01;52.90;98360.78;6252040;27;96796;-59
2022/08/28 02:44:29;;;;;;;;;18.50;18.50;;;;;27.01;52.77;98369.09;6245874;27;97740;-58
2022/08/28 02:47:32;;;;;;;;;18.00;17.00;;;;;26.98;52.70;98361.47;6248916;27;97422;-58
2022/08/28 02:50:36;;;;;;;;;16.00;15.00;;;;;26.97;52.98;98354.34;6238678;27;96771;-57
2022/08/28 02:53:41;;;;;;;;;17.00;16.00;;;;;26.90;53.27;98354.06;6259461;27;97388;-58
2022/08/28 02:56:45;;;;;;;;;20.00;18.00;;;;;26.96;53.13;98363.78;6243972;27;96720;-59
2022/08/28 02:59:49;;;;;;;;;16.33;16.00;;;;;26.95;53.07;98364.91;6239280;27;96444;-59
2022/08/28 03:02:53;;;;;;;;;17.00;15.00;;;;;26.95;52.86;98357.44;6246388;27;97426;-58
2022/08/28 03:05:57;;;;;;;;;20.00;19.00;;;;;26.94;53.08;98357.75;6241024;27;97740;-58
2022/08/28 03:09:00;;;;;;;;;21.50;21.50;;;;;26.93;53.61;98356.94;6246868;27;96884;-60
2022/08/28 03:12:05;;;;;;;;;18.40;17.00;;;;;26.96;53.88;98363.78;6251114;27;96835;-56
2022/08/28 03:15:09;;;;;;;;;17.40;16.40;;;;;26.95;53.30;98364.91;6254249;27;97049;-59
2022/08/28 03:18:14;;;;;;;;;17.40;16.40;;;;;26.93;53.38;98367.22;6239622;27;97473;-58
2022/08/28 03:21:18;;;;;;;;;18.00;17.00;;;;;26.91;52.96;98364.81;6242421;27;98565;-59
2022/08/28 03:24:21;;;;;;;;;17.00;17.00;;;;;26.91;53.07;98370.34;6249208;27;98086;-60
2022/08/28 03:27:26;;;;;;;;;20.00;19.00;;;;;26.90;53.08;98365.13;6248878;27;96604;-58
2022/08/28 03:30:29;;;;;;;;;30.00;29.40;;;;;26.89;53.11;98355.22;6237354;27;97004;-59
2022/08/28 03:33:33;;;;;;;;;25.00;24.00;;;;;26.88;52.72;98364.69;6239849;27;96674;-60
2022/08/28 03:36:39;;;;;;;;;20.00;19.75;;;;;26.86;52.59;98367.78;6240484;27;97209;-58
2022/08/28 03:39:42;;;;;;;;;20.00;20.00;;;;;26.85;52.14;98377.19;6245964;27;97536;-58
2022/08/28 03:42:47;;;;;;;;;22.00;21.00;;;;;26.84;52.60;98377.53;6242067;27;97435;-58
2022/08/28 03:45:58;;;;;;;;;21.40;20.40;;;;;26.78;51.91;98382.44;6248155;27;97576;-59
2022/08/28 03:49:03;;;;;;;;;23.40;22.40;;;;;26.79;52.20;98391.56;6249036;27;97078;-58
2022/08/28 03:52:07;;;;;;;;;19.00;19.00;;;;;26.78;51.98;98390.75;6242649;27;97122;-59
2022/08/28 03:55:12;;;;;;;;;14.50;14.00;;;;;26.76;52.16;98404.13;6241606;27;97147;-59
2022/08/28 03:58:17;;;;;;;;;24.00;23.60;;;;;26.63;52.08;98394.94;6243448;27;97475;-59
2022/08/28 04:01:21;;;;;;;;;21.40;21.00;;;;;26.75;52.17;98421.88;6249897;27;97122;-57
2022/08/28 04:04:25;;;;;;;;;21.20;20.80;;;;;26.74;52.25;98410.00;6237171;27;96663;-58
2022/08/28 04:07:28;;;;;;;;;23.20;21.00;;;;;26.74;52.25;98418.28;6236455;27;97341;-58
2022/08/28 04:10:32;;;;;;;;;23.40;21.80;;;;;26.53;52.10;98380.75;6245996;27;97525;-59
2022/08/28 04:13:37;;;;;;;;;25.40;24.40;;;;;26.72;52.00;98415.06;6241332;27;96692;-57
2022/08/28 04:16:40;;;;;;;;;23.80;21.60;;;;;26.74;51.32;98411.94;6258640;27;97194;-57
2022/08/28 04:19:46;;;;;;;;;19.75;18.25;;;;;26.76;51.51;98417.16;6258094;27;96616;-57
2022/08/28 04:22:50;;;;;;;;;21.00;19.25;;;;;26.78;51.69;98414.84;6246849;27;96676;-58
2022/08/28 04:25:57;;;;;;;;;23.00;23.00;;;;;26.79;51.65;98420.03;6237518;28;97566;-60
2022/08/28 04:29:02;;;;;;;;;18.00;16.40;;;;;26.63;52.18;98394.94;6246564;27;97727;-60
2022/08/28 04:32:06;;;;;;;;;19.00;18.60;;;;;26.84;51.81;98430.06;6246861;27;97299;-57
2022/08/28 04:35:12;;;;;;;;;21.00;20.60;;;;;26.88;51.47;98429.09;6246057;27;97415;-57
2022/08/28 04:38:15;;;;;;;;;20.00;20.00;;;;;26.94;51.50;98427.72;6251899;27;97035;-57
2022/08/28 04:41:21;;;;;;;;;22.40;21.00;;;;;26.99;51.13;98432.25;6248767;27;97407;-57
2022/08/28 04:44:26;;;;;;;;;18.50;17.50;;;;;27.07;50.96;98429.38;6256396;27;97949;-59
2022/08/28 04:47:29;;;;;;;;;21.00;20.00;;;;;27.14;50.14;98426.88;6247896;27;97619;-58
2022/08/28 04:50:33;;;;;;;;;21.20;20.00;;;;;27.20;50.26;98434.97;6244597;27;96458;-60
2022/08/28 04:53:43;;;;;;;;;20.00;20.00;;;;;27.28;49.53;98432.09;6261151;27;99440;-60
2022/08/28 04:56:46;;;;;;;;;17.25;16.00;;;;;27.35;49.51;98431.56;6248797;27;97494;-59
2022/08/28 04:59:54;;;;;;;;;20.00;18.00;;;;;27.43;49.23;98425.91;6236928;27;96945;-59
2022/08/28 05:02:57;;;;;;;;;18.67;17.00;;;;;27.51;49.32;98429.78;6253769;27;97794;-60
2022/08/28 05:06:01;;;;;;;;;18.50;18.50;;;;;27.57;49.24;98431.97;6250506;27;97396;-58
2022/08/28 05:09:05;;;;;;;;;15.00;14.00;;;;;27.65;49.10;98433.03;6247577;27;96917;-61
2022/08/28 05:12:14;;;;;;;;;21.00;21.00;;;;;27.73;48.22;98439.59;6243991;27;98456;-60
2022/08/28 05:15:20;;;;;;;;;14.00;13.00;;;;;27.82;48.66;98445.81;6247166;27;97518;-59
2022/08/28 05:18:24;;;;;;;;;20.00;19.00;;;;;27.89;48.97;98446.88;6248151;27;97945;-60
2022/08/28 05:21:28;;;;;;;;;17.60;17.60;;;;;27.95;49.86;98459.34;6243564;27;97409;-61
2022/08/28 05:24:31;;;;;;;;;17.00;16.00;;;;;28.00;49.67;98450.78;6245456;27;97521;-59
2022/08/28 05:27:37;;;;;;;;;18.00;16.00;;;;;28.02;49.59;98448.50;6245318;27;97406;-58
2022/08/28 05:30:42;;;;;;;;;19.50;17.50;;;;;28.04;50.00;98439.84;6252935;27;99534;-63
2022/08/28 05:33:47;;;;;;;;;18.00;16.25;;;;;27.79;49.49;98404.97;6243022;27;96905;-60
2022/08/28 05:36:50;;;;;;;;;17.60;17.00;;;;;27.96;49.17;98441.56;6238994;27;97003;-61
2022/08/28 05:39:53;;;;;;;;;20.00;18.50;;;;;27.94;49.49;98440.31;6239055;27;97201;-60
2022/08/28 05:42:57;;;;;;;;;20.00;19.00;;;;;27.90;49.05;98437.44;6243483;27;97723;-59
2022/08/28 05:46:03;;;;;;;;;20.00;19.00;;;;;27.90;49.02;98439.38;6245613;27;97504;-60
2022/08/28 05:49:09;;;;;;;;;15.00;14.50;;;;;27.82;49.36;98431.97;6251451;27;98558;-60
2022/08/28 05:52:14;;;;;;;;;20.60;18.60;;;;;27.88;49.40;98438.91;6255705;27;97312;-61
2022/08/28 05:55:18;;;;;;;;;16.60;15.60;;;;;27.87;49.28;98437.28;6241753;27;96922;-61
2022/08/28 05:58:30;;;;;;;;;13.00;12.00;;;;;27.88;50.04;98445.25;6257090;27;97107;-60
2022/08/28 06:01:38;;;;;;;;;15.50;15.00;;;;;27.92;50.03;98431.53;6241635;27;97594;-58
2022/08/28 06:04:41;;;;;;;;;15.20;15.00;;;;;27.97;50.25;98428.53;6245740;27;97283;-58
2022/08/28 06:07:45;;;;;;;;;17.00;17.00;;;;;28.02;49.22;98429.09;6247028;27;96595;-59
2022/08/28 06:10:49;;;;;;;;;19.50;17.50;;;;;28.09;49.27;98424.94;6247343;27;97277;-59
2022/08/28 06:13:53;;;;;;;;;13.60;13.00;;;;;28.15;50.04;98424.38;6242349;27;97557;-59
2022/08/28 06:16:58;;;;;;;;;17.80;16.00;;;;;28.23;48.32;98428.19;6258843;27;97498;-59
2022/08/28 06:20:02;;;;;;;;;16.00;15.00;;;;;28.32;48.16;98424.13;6246760;27;97549;-60
2022/08/28 06:23:05;;;;;;;;;16.20;15.20;;;;;28.39;47.58;98424.31;6246325;27;96827;-59
2022/08/28 06:26:09;;;;;;;;;16.25;15.75;;;;;28.48;47.98;98424.22;6251733;27;96754;-58
2022/08/28 06:29:17;;;;;;;;;17.50;17.50;;;;;28.57;49.07;98416.56;6243151;27;96722;-60
2022/08/28 06:32:24;;;;;;;;;13.00;13.00;;;;;28.65;49.34;98415.59;6248600;27;97611;-61
2022/08/28 06:35:28;;;;;;;;;18.00;17.00;;;;;28.78;50.67;98419.97;6265540;27;97512;-61
2022/08/28 06:38:32;;;;;;;;;16.75;15.50;;;;;28.92;49.53;98422.38;6256972;27;97440;-60
2022/08/28 06:41:41;;;;;;;;;15.00;14.25;;;;;29.05;46.62;98423.09;6243259;27;97727;-60
2022/08/28 06:44:45;;;;;;;;;17.00;17.00;;;;;29.21;45.30;98433.09;6247600;27;97151;-59
2022/08/28 06:47:49;;;;;;;;;19.00;18.00;;;;;29.35;46.34;98432.69;6242900;27;97510;-62
2022/08/28 06:50:57;;;;;;;;;18.00;16.00;;;;;29.54;46.36;98430.03;6242672;27;98223;-60
2022/08/28 06:54:01;;;;;;;;;16.75;16.00;;;;;29.77;45.59;98432.16;6237087;27;96719;-62
2022/08/28 06:57:05;;;;;;;;;14.00;13.80;;;;;29.95;44.61;98427.91;6237822;27;97189;-59
2022/08/28 07:00:10;;;;;;;;;14.60;14.00;;;;;30.10;42.90;98419.50;6239022;27;97450;-61
2022/08/28 07:03:15;;;;;;;;;13.80;12.20;;;;;30.23;42.75;98422.19;6237149;27;97414;-60
2022/08/28 07:06:21;;;;;;;;;16.60;15.20;;;;;30.39;42.69;98422.97;6240636;27;97514;-60
2022/08/28 07:09:24;;;;;;;;;17.00;16.20;;;;;30.53;42.52;98415.78;6242382;27;97234;-54
2022/08/28 07:12:28;;;;;;;;;15.20;14.00;;;;;30.74;45.01;98420.94;6247728;27;97583;-58
2022/08/28 07:15:31;;;;;;;;;19.00;18.00;;;;;30.95;43.35;98404.69;6244292;27;97452;-61
2022/08/28 07:18:37;;;;;;;;;18.40;17.40;;;;;31.20;44.76;98404.41;6244379;27;97764;-59
2022/08/28 07:21:43;;;;;;;;;16.00;15.75;;;;;31.46;42.85;98412.84;6242744;27;98367;-61
2022/08/28 07:24:46;;;;;;;;;16.75;16.75;;;;;31.59;43.16;98396.78;6243528;27;98201;-57
2022/08/28 07:27:50;;;;;;;;;18.00;18.00;;;;;31.90;41.37;98418.00;6246947;27;97235;-59
2022/08/28 07:30:58;;;;;;;;;17.50;17.50;;;;;32.11;42.34;98416.38;6239958;27;96816;-60
2022/08/28 07:34:02;;;;;;;;;16.00;16.00;;;;;32.33;41.53;98422.25;6242668;27;98854;-57
2022/08/28 07:37:06;;;;;;;;;17.00;15.50;;;;;32.55;41.55;98413.81;6246074;27;97378;-57
2022/08/28 07:40:15;;;;;;;;;18.00;17.00;;;;;32.77;42.05;98420.50;6242913;27;97006;-59
2022/08/28 07:46:41;;;;;;;;;18.20;17.20;;;;;33.06;41.29;98433.63;6245699;27;98042;-55
2022/08/28 07:49:45;;;;;;;;;19.00;18.00;;;;;33.23;41.60;98432.25;6243942;27;98289;-59
2022/08/28 07:52:50;;;;;;;;;18.00;17.00;;;;;33.40;40.00;98426.03;6238409;27;97371;-58
2022/08/28 07:55:53;;;;;;;;;16.20;16.00;;;;;33.59;39.76;98425.03;6241283;27;97660;-57
2022/08/28 07:58:57;;;;;;;;;19.00;17.00;;;;;33.77;39.38;98431.59;6250688;27;96867;-55
2022/08/28 08:02:00;;;;;;;;;18.00;17.20;;;;;33.96;39.94;98425.00;6242938;27;97313;-57
2022/08/28 08:05:06;;;;;;;;;18.80;16.00;;;;;34.07;37.20;98420.25;6242898;27;98345;-60
2022/08/28 08:08:09;;;;;;;;;16.00;14.80;;;;;34.15;35.87;98430.31;6244396;27;97347;-59
2022/08/28 08:11:16;;;;;;;;;16.00;16.00;;;;;34.21;34.86;98425.19;6241922;27;96595;-64
2022/08/28 08:14:20;;;;;;;;;17.20;16.20;;;;;34.33;35.46;98424.88;6242544;27;96695;-56
2022/08/28 08:17:25;;;;;;;;;16.00;15.75;;;;;34.48;35.78;98428.56;6236552;27;96861;-57
2022/08/28 08:20:30;;;;;;;;;16.00;15.00;;;;;34.67;35.48;98431.06;6236727;27;96866;-58
2022/08/28 08:23:34;;;;;;;;;15.00;14.00;;;;;34.84;34.89;98432.38;6246474;27;96948;-57
2022/08/28 08:26:44;;;;;;;;;13.60;13.40;;;;;35.00;33.61;98424.41;6243536;27;97643;-60
2022/08/28 08:29:58;;;;;;;;;12.00;12.00;;;;;35.20;35.28;98432.13;6257252;27;97484;-57
2022/08/28 08:33:02;;;;;;;;;14.00;14.00;;;;;35.32;33.93;98433.75;6237901;27;97270;-55
2022/08/28 08:36:07;;;;;;;;;15.00;14.60;;;;;35.33;33.50;98445.78;6245899;27;97509;-60
2022/08/28 08:39:11;;;;;;;;;15.00;14.00;;;;;35.19;32.69;98452.13;6244011;27;97103;-60
2022/08/28 08:42:22;;;;;;;;;15.50;14.50;;;;;34.97;33.05;98445.63;6242689;27;97488;-58
2022/08/28 08:45:28;;;;;;;;;15.40;14.40;;;;;34.79;33.13;98450.34;6237261;27;97434;-60
2022/08/28 08:48:35;;;;;;;;;17.75;16.00;;;;;34.61;33.45;98455.00;6242336;27;97612;-60
2022/08/28 08:51:42;;;;;;;;;16.00;16.00;;;;;34.42;33.71;98456.09;6262351;27;97446;-60
2022/08/28 08:55:05;;;;;;;;;15.00;14.00;;;;;34.25;33.80;98456.81;6241691;27;96663;-61
2022/08/28 08:58:13;;;;;;;;;17.40;15.40;;;;;34.12;33.66;98461.84;6245165;27;97438;-60
2022/08/28 09:01:23;;;;;;;;;18.00;16.40;;;;;34.04;33.96;98451.81;6241751;27;97676;-61
2022/08/28 09:04:39;;;;;;;;;16.75;16.00;;;;;33.97;33.96;98456.53;6237796;27;96497;-60
2022/08/28 09:07:51;;;;;;;;;14.80;14.00;;;;;33.90;34.02;98455.31;6236862;27;97440;-59
2022/08/28 09:11:02;;;;;;;;;14.60;14.60;;;;;33.85;34.09;98446.47;6238662;27;97436;-59
2022/08/28 09:14:13;;;;;;;;;16.00;15.00;;;;;33.83;34.13;98458.03;6242523;27;97309;-64
2022/08/28 09:17:23;;;;;;;;;15.33;15.33;;;;;33.79;33.94;98450.78;6240483;27;97402;-59
2022/08/28 09:20:28;;;;;;;;;14.00;14.00;;;;;33.78;34.26;98461.16;6238417;27;97234;-57
2022/08/28 09:23:37;;;;;;;;;15.00;15.00;;;;;33.76;33.93;98471.16;6236277;27;97039;-57
2022/08/28 09:26:41;;;;;;;;;17.00;16.75;;;;;33.71;34.72;98477.09;6240635;27;98003;-60
2022/08/28 09:29:55;;;;;;;;;17.00;17.00;;;;;33.63;34.47;98478.16;6238866;27;98189;-62
2022/08/28 09:33:00;;;;;;;;;18.60;15.00;;;;;33.53;34.75;98469.28;6235284;27;97499;-61
2022/08/28 09:36:28;;;;;;;;;17.60;16.60;;;;;33.45;35.16;98470.41;6234801;27;97906;-59
2022/08/28 09:39:35;;;;;;;;;18.00;15.33;;;;;33.37;35.04;98474.31;6235630;27;97574;-59
2022/08/28 09:46:03;;;;;;;;;15.00;15.00;;;;;33.26;35.70;98475.38;6251285;27;96665;-57
2022/08/28 09:49:12;;;;;;;;;20.40;18.40;;;;;33.19;35.60;98475.28;6240787;27;98568;-60
2022/08/28 09:52:19;;;;;;;;;14.00;14.00;;;;;33.10;35.97;98470.78;6248673;27;97525;-61
2022/08/28 09:55:35;;;;;;;;;16.40;15.40;;;;;33.05;35.93;98473.91;6247913;27;97367;-56
2022/08/28 09:58:42;;;;;;;;;14.00;13.50;;;;;33.02;36.05;98462.72;6249707;27;97918;-60
2022/08/28 10:02:11;;;;;;;;;17.80;16.80;;;;;32.98;36.18;98468.25;6240225;27;97658;-57
2022/08/28 10:05:24;;;;;;;;;16.00;15.00;;;;;32.94;36.77;98469.41;6231432;27;97542;-62
2022/08/28 10:08:49;;;;;;;;;16.80;16.00;;;;;32.90;36.59;98468.53;6234657;27;97528;-57
2022/08/28 10:12:01;;;;;;;;;15.20;13.20;;;;;32.82;36.49;98467.63;6238654;27;97555;-63
2022/08/28 10:15:13;;;;;;;;;14.00;13.00;;;;;32.75;36.70;98464.75;6236551;27;96862;-61
2022/08/28 10:18:31;;;;;;;;;17.00;14.40;;;;;32.71;36.85;98472.28;6237188;27;97946;-60
2022/08/28 10:21:43;;;;;;;;;18.60;17.00;;;;;32.68;37.49;98467.44;6242303;27;96708;-58
2022/08/28 10:25:03;;;;;;;;;13.00;13.00;;;;;32.65;37.03;98469.00;6235600;27;97511;-60
2022/08/28 10:28:35;;;;;;;;;20.00;20.00;;;;;32.60;36.94;98466.50;6247917;27;97040;-60
2022/08/28 10:31:45;;;;;;;;;12.80;12.00;;;;;32.58;37.03;98466.09;6236146;27;97430;-58
2022/08/28 10:35:02;;;;;;;;;14.00;14.00;;;;;32.57;36.98;98472.03;6236224;27;97443;-58
2022/08/28 10:38:12;;;;;;;;;20.60;20.40;;;;;32.50;37.16;98464.38;6238253;27;96997;-57
2022/08/28 10:41:20;;;;;;;;;13.00;13.00;;;;;32.54;37.19;98481.19;6235269;27;98155;-62
2022/08/28 10:44:31;;;;;;;;;12.80;12.00;;;;;32.52;37.57;98472.38;6246589;27;97449;-60
2022/08/28 10:47:39;;;;;;;;;18.00;17.75;;;;;32.49;37.33;98473.94;6250960;27;97087;-55
2022/08/28 10:50:48;;;;;;;;;14.00;12.00;;;;;32.48;37.24;98475.13;6235157;27;97444;-59
2022/08/28 10:53:56;;;;;;;;;16.00;16.00;;;;;32.46;37.72;98480.25;6235052;27;97398;-57
2022/08/28 10:57:06;;;;;;;;;13.00;12.00;;;;;32.44;37.52;98471.47;6233436;27;96841;-60
2022/08/28 11:00:14;;;;;;;;;12.00;11.00;;;;;32.44;37.81;98470.66;6240654;27;96705;-65
2022/08/28 11:03:21;;;;;;;;;16.00;14.00;;;;;32.45;37.71;98470.28;6242218;27;97431;-57
2022/08/28 11:06:43;;;;;;;;;16.60;15.60;;;;;32.46;38.07;98471.06;6236759;27;97317;-57
2022/08/28 11:09:48;;;;;;;;;14.00;13.00;;;;;32.49;37.79;98464.75;6238562;27;97450;-61
2022/08/28 11:12:52;;;;;;;;;13.00;12.75;;;;;32.51;37.04;98465.97;6246286;27;97240;-57
2022/08/28 11:15:57;;;;;;;;;14.50;14.00;;;;;32.54;37.13;98458.84;6249233;27;97356;-60
2022/08/28 11:19:32;;;;;;;;;13.60;12.60;;;;;32.54;36.97;98462.44;6251422;27;97915;-57
2022/08/28 11:22:41;;;;;;;;;10.00;9.00;;;;;32.58;37.02;98468.88;6238554;27;96692;-60
2022/08/28 11:25:53;;;;;;;;;13.00;12.00;;;;;32.59;36.70;98467.72;6243014;27;97394;-61
2022/08/28 11:28:58;;;;;;;;;14.00;14.00;;;;;32.59;36.96;98462.13;6246895;27;96846;-60
2022/08/28 11:32:54;;;;;;;;;15.00;14.00;;;;;32.63;37.38;98470.53;6241030;27;97309;-63
2022/08/28 11:35:58;;;;;;;;;14.25;13.25;;;;;32.73;37.02;98460.72;6240257;27;97038;-60
2022/08/28 11:39:06;;;;;;;;;15.80;15.00;;;;;32.80;36.74;98460.81;6245237;27;96853;-61
2022/08/28 11:42:35;;;;;;;;;14.40;14.40;;;;;32.92;37.02;98455.00;6241237;27;97378;-60
2022/08/28 11:46:10;;;;;;;;;14.00;13.75;;;;;33.08;35.86;98450.03;6246315;27;97628;-60
2022/08/28 11:49:41;;;;;;;;;12.00;10.75;;;;;33.26;36.34;98450.25;6248130;27;97201;-56
2022/08/28 11:53:10;;;;;;;;;16.20;15.60;;;;;33.44;36.34;98446.44;6251775;27;97475;-58
2022/08/28 11:56:40;;;;;;;;;11.00;10.00;;;;;33.59;35.43;98455.78;6240566;27;96874;-61
2022/08/28 12:00:08;;;;;;;;;17.50;16.50;;;;;33.64;35.38;98455.41;6242655;27;97208;-59
2022/08/28 12:03:15;;;;;;;;;17.60;15.20;;;;;33.70;34.98;98453.91;6241433;27;97328;-57
2022/08/28 12:06:47;;;;;;;;;14.80;14.00;;;;;33.71;34.92;98463.13;6247553;27;97306;-55
2022/08/28 12:09:51;;;;;;;;;10.00;10.00;;;;;33.72;35.38;98456.34;6249770;27;98109;-58
2022/08/28 12:12:56;;;;;;;;;12.00;11.80;;;;;33.71;35.77;98454.72;6246963;27;97863;-59
2022/08/28 12:16:05;;;;;;;;;11.00;10.60;;;;;33.74;35.35;98459.53;6246960;27;96921;-64
2022/08/28 12:19:10;;;;;;;;;13.00;12.50;;;;;33.76;35.26;98457.16;6248464;27;96563;-61
2022/08/28 12:22:17;;;;;;;;;15.60;15.00;;;;;33.84;35.20;98456.03;6249814;27;97419;-61
2022/08/28 12:25:35;;;;;;;;;14.00;13.00;;;;;33.96;35.05;98452.97;6244658;27;97465;-61
2022/08/28 12:28:44;;;;;;;;;15.40;14.80;;;;;34.11;35.04;98456.66;6241759;27;97778;-57
2022/08/28 12:32:17;;;;;;;;;12.75;12.75;;;;;34.26;34.59;98450.78;6242800;27;97349;-63
2022/08/28 12:35:23;;;;;;;;;15.00;14.00;;;;;34.43;33.72;98454.09;6232487;27;97882;-60
2022/08/28 12:38:31;;;;;;;;;14.00;14.00;;;;;34.61;33.72;98457.81;6244941;27;97217;-60
2022/08/28 12:41:36;;;;;;;;;13.20;12.80;;;;;34.75;32.23;98452.31;6248297;27;97679;-58
2022/08/28 12:44:39;;;;;;;;;15.40;14.00;;;;;34.86;32.64;98447.56;6243627;27;96734;-55
2022/08/28 12:47:44;;;;;;;;;12.00;11.00;;;;;34.98;32.78;98440.84;6242674;27;97389;-57
2022/08/28 12:50:48;;;;;;;;;12.40;11.40;;;;;35.15;31.50;98448.47;6243244;27;96924;-61
2022/08/28 12:53:54;;;;;;;;;11.00;10.60;;;;;35.33;31.01;98446.59;6246358;27;97393;-58
2022/08/28 12:56:57;;;;;;;;;11.80;11.00;;;;;35.48;30.63;98436.19;6247029;27;97617;-57
2022/08/28 13:00:08;;;;;;;;;11.60;11.00;;;;;35.66;31.35;98431.44;6247803;27;96909;-55
2022/08/28 13:03:12;;;;;;;;;11.00;10.50;;;;;35.84;30.77;98425.81;6246260;27;97729;-57
2022/08/28 13:06:24;;;;;;;;;10.00;10.00;;;;;36.04;30.47;98429.84;6244242;27;97481;-59
2022/08/28 13:09:30;;;;;;;;;12.00;11.00;;;;;36.12;29.91;98428.63;6247982;27;98317;-61
2022/08/28 13:12:38;;;;;;;;;11.67;10.00;;;;;36.19;30.54;98425.03;6248701;27;98925;-57
2022/08/28 13:16:01;;;;;;;;;13.00;12.40;;;;;36.29;30.57;98422.22;6244229;27;97387;-59
2022/08/28 13:19:25;;;;;;;;;13.60;12.60;;;;;36.36;30.55;98413.75;6242648;27;98235;-58
2022/08/28 13:22:34;;;;;;;;;12.00;11.00;;;;;36.33;30.45;98405.34;6250795;27;97253;-63
2022/08/28 13:25:40;;;;;;;;;11.00;11.00;;;;;36.33;30.88;98406.16;6250889;27;97472;-58
2022/08/28 13:28:43;;;;;;;;;11.60;11.00;;;;;36.19;30.82;98402.59;6249754;27;96733;-56
2022/08/28 13:31:58;;;;;;;;;13.00;11.50;;;;;36.12;31.53;98405.41;6248533;27;97245;-58
2022/08/28 13:35:33;;;;;;;;;13.20;12.80;;;;;36.02;31.47;98407.78;6246042;27;97520;-60
2022/08/28 13:38:36;;;;;;;;;12.40;12.00;;;;;35.98;31.76;98400.56;6251543;27;98287;-59
2022/08/28 13:41:43;;;;;;;;;12.00;11.75;;;;;35.93;32.37;98415.81;6238184;27;96559;-60
2022/08/28 13:44:49;;;;;;;;;15.00;15.00;;;;;35.79;31.90;98406.59;6237243;27;97894;-58
2022/08/28 13:47:52;;;;;;;;;14.00;13.40;;;;;35.68;32.05;98405.81;6240708;27;97483;-60
2022/08/28 13:51:01;;;;;;;;;11.25;11.25;;;;;35.58;32.70;98407.34;6236080;27;97462;-58
2022/08/28 13:54:09;;;;;;;;;12.75;12.75;;;;;35.49;32.35;98407.75;6246444;27;97138;-59
2022/08/28 13:57:16;;;;;;;;;12.00;12.00;;;;;35.44;32.53;98402.53;6244699;27;96730;-62
2022/08/28 14:00:20;;;;;;;;;13.00;12.00;;;;;35.43;32.35;98405.75;6238687;27;97380;-60
2022/08/28 14:03:34;;;;;;;;;12.00;11.00;;;;;35.38;32.40;98403.34;6241613;27;97507;-59
2022/08/28 14:06:38;;;;;;;;;14.33;12.33;;;;;35.32;31.98;98402.94;6247565;27;97432;-59
2022/08/28 14:09:42;;;;;;;;;14.00;14.00;;;;;35.26;32.44;98406.50;6240581;27;97659;-60
2022/08/28 14:12:47;;;;;;;;;12.00;12.00;;;;;35.14;32.23;98410.44;6243514;27;97476;-62
2022/08/28 14:15:51;;;;;;;;;17.80;17.40;;;;;35.05;32.70;98418.44;6237276;27;97440;-59
2022/08/28 14:18:54;;;;;;;;;13.75;13.75;;;;;34.91;32.89;98429.59;6234589;27;97683;-59
2022/08/28 14:21:58;;;;;;;;;16.60;14.00;;;;;34.80;32.87;98417.56;6236568;27;97741;-59
2022/08/28 14:25:01;;;;;;;;;13.00;12.00;;;;;34.68;33.42;98425.09;6248406;27;98314;-60
2022/08/28 14:28:06;;;;;;;;;17.00;16.00;;;;;34.56;33.89;98428.19;6248753;27;97458;-61